Identifiez vous afin de poster une observation
 • Tableaux GEFS v12   

Tableaux GEFS v12 de Températures à 2 mètres (°C)

Run GEFS du 23/01/2022 06Z - Choix du run : 00 - 06 - 12 - 18 Sauver tableau : Conserver cette image

Paramètres : [ Temp. 850hPa ] - [ Temp. 500hPa ] - [ Pression ] - [ Précip. ] - [ Temp. 2m ] - [ Z500 ] - [ CAPE ] -
[ Vent+Direction 10m ] - [ Vent 10m ] - [ Vent Rafales 10m ] - [ Vent+Direction 850hPa ] - [ Vent 850hPa ] - [ Iso 0 ] -
Tri des valeurs : [ Par scénario ] - [ Ascendant ] - [ Descendant ]

Localisation : 42.7N 23.3E

DateEch.
2022-01-23 06Z0-11.7-11.5-11.5-11.4-11.3-11.3-11.3-11.3-11.2-11.2-11.2-11.2-11.2-11.2-11.2-11.2-11.2-11.1-11.1-11.1-11.1-11.1-11.1-11-11-11-10.9-10.9-10.9-10.9-10.8-10.8
2022-01-23 09Z3-8.2-7.1-7-7-7-7-7-7-7-6.9-6.9-6.9-6.9-6.9-6.9-6.9-6.9-6.8-6.8-6.8-6.8-6.8-6.8-6.8-6.7-6.7-6.7-6.7-6.7-6.6-6.6-6.5
2022-01-23 12Z6-7.3-6-5.9-5.8-5.8-5.7-5.7-5.6-5.6-5.6-5.6-5.6-5.6-5.5-5.5-5.5-5.5-5.5-5.4-5.4-5.4-5.4-5.4-5.3-5.3-5.3-5.2-5.2-5.2-5.2-5.1-5.1
2022-01-23 15Z9-8.1-7.3-7.2-7.2-7.1-7.1-7.1-7.1-7.1-7.1-7.1-7-7-7-7-7-6.9-6.9-6.9-6.9-6.9-6.9-6.9-6.9-6.9-6.8-6.8-6.8-6.8-6.7-6.7-6.7
2022-01-23 18Z12-8.8-8.7-8.7-8.7-8.7-8.7-8.6-8.5-8.5-8.5-8.4-8.4-8.4-8.3-8.3-8.3-8.3-8.2-8.2-8.2-8.1-8.1-8.1-8.1-8.1-8.1-8.1-8.1-7.9-7.9-7.7-7.5
2022-01-23 21Z15-9.7-9.5-9.4-9.2-9.2-8.9-8.9-8.6-8.6-8.6-8.5-8.4-8.4-8.4-8.4-8.3-8.3-8.3-8.3-8.3-8.3-8.2-8.1-8.1-8.1-8-8-8-7.9-7.9-7.9-7.5
2022-01-24 00Z18-12-10.5-10.1-9.9-9.8-9.7-9.6-9.6-9.6-9.6-9.5-9.5-9.4-9.4-9.4-9.3-9.2-9.2-9.1-9.1-8.9-8.9-8.6-8.5-8.5-8.5-8.4-8.4-8.4-8.2-8.2-7.9
2022-01-24 03Z21-10.5-10-9.9-9.8-9.7-9.7-9.7-9.6-9.5-9.5-9.4-9.4-9.3-9.3-9.1-9.1-9.1-9-9-9-8.9-8.9-8.9-8.9-8.8-8.7-8.7-8.6-8.6-8.6-8.5-8.4
2022-01-24 06Z24-12.1-11.9-11.9-11.8-11.7-11.7-11.6-11.5-11.1-11.1-11-10.9-10.7-10.7-10.6-10.6-10.5-10.3-10.3-10.1-10.1-10-9.9-9.9-9.9-9.9-9.9-9.6-9.6-9.5-9.1-8.4
2022-01-24 09Z27-8.5-8.2-8.2-8.2-8-7.9-7.8-7.8-7.7-7.6-7.5-7.4-7.4-7.4-7.4-7.3-7.3-7.3-7.3-7.3-7.3-7.3-7.3-7.2-7.2-7.2-7.2-7.1-7-6.9-6.9-6.9
2022-01-24 12Z30-7.8-7-7-7-6.8-6.7-6.7-6.7-6.6-6.6-6.5-6.5-6.5-6.4-6.4-6.4-6.3-6.3-6.3-6.3-6.3-6.2-6.2-6.1-6.1-6.1-6-6-6-5.8-5.7-5.6
2022-01-24 15Z33-10.1-9.2-8.9-8.9-8.8-8.8-8.8-8.7-8.7-8.7-8.6-8.6-8.6-8.6-8.6-8.6-8.6-8.6-8.5-8.5-8.5-8.4-8.4-8.4-8.4-8.3-8.1-8.1-8.1-8-8-7.6
2022-01-24 18Z36-14.8-13.1-12.7-12.6-12.6-12.6-12.5-12.4-12.4-12.4-12.4-12.4-12.3-12.3-12.3-12.3-12.3-12.2-12.2-12.2-12.2-12.1-12.1-12-11.9-11.9-11.8-11.7-11.6-11-10.5-10
2022-01-24 21Z39-15.3-13.9-13.7-13.6-13.6-13.5-13.5-13.4-13.3-13.3-13.3-13.3-13.2-13.1-13-13-12.9-12.9-12.9-12.8-12.7-12.5-12.4-12.3-11.9-11.7-11.7-11.4-11.1-10.9-10.6-10.4
2022-01-25 00Z42-14.6-14.4-14.4-14.3-14.3-14.1-13.9-13.6-13.6-13.4-13.4-13.4-13.3-13.1-13-13-13-13-12.8-12.8-12.8-12.7-12.5-12.4-12.2-12.2-12.1-12.1-11.7-11.6-11.5-10.9
2022-01-25 03Z45-15.2-15-14.9-14.8-14.4-14.4-14.3-14.3-14.3-14.1-14.1-14.1-13.9-13.9-13.9-13.8-13.8-13.8-13.6-13.3-13.2-13.2-13-13-12.8-12.8-12.7-12.7-12.4-12.1-11.8-11.6
2022-01-25 06Z48-15.1-15-15-14.9-14.8-14.5-14.5-14.4-14.3-14.3-14.2-14.2-14.1-14.1-14.1-14-14-14-13.8-13.7-13.6-13.5-13.5-13.4-13.3-13.1-13.1-13-13-12.8-12.8-12.5
2022-01-25 09Z51-9.7-9.5-9.3-9.3-9.2-9.2-9.2-9.2-9.1-9-9-8.9-8.9-8.8-8.8-8.8-8.7-8.7-8.7-8.6-8.6-8.6-8.6-8.6-8.6-8.5-8.5-8.5-8.4-8.3-8.3-8.2
2022-01-25 12Z54-7.3-7.1-6.7-6.6-6.5-6.5-6.4-6.4-6.4-6.3-6.2-6.2-6.1-6.1-6.1-6.1-6-6-6-6-6-5.9-5.9-5.9-5.9-5.8-5.8-5.8-5.7-5.7-5.5-5.5
2022-01-25 15Z57-10.3-9.1-9-8.9-8.9-8.9-8.9-8.8-8.8-8.7-8.7-8.7-8.6-8.5-8.5-8.5-8.4-8.4-8.4-8.4-8.4-8.4-8.4-8.4-8.4-8.3-8.3-8.3-8.1-8.1-7.9-7.8
2022-01-25 18Z60-14.5-13.6-13.3-13.3-13.1-13-13-12.9-12.9-12.8-12.8-12.8-12.7-12.7-12.7-12.6-12.6-12.5-12.4-12.4-12.3-12.3-12.3-12.3-12.3-12.2-12.2-12.2-11.8-11.8-11.6-10.4
2022-01-25 21Z63-15-14.7-14.3-14.2-14.2-14.1-14.1-14.1-14-13.9-13.7-13.6-13.6-13.6-13.6-13.5-13.5-13.5-13.5-13.4-13.3-13.3-13.2-13.2-13.1-13-12.9-12.7-12.6-12.4-11.8-10.9
2022-01-26 00Z66-14.7-14.6-14.6-14.5-14.3-14.3-14.2-14.2-14.2-14.2-14-13.9-13.9-13.8-13.8-13.7-13.6-13.6-13.6-13.4-13.3-13-13-12.9-12.8-12.7-12.4-11.7-11.6-10.8-10.7-9.4
2022-01-26 03Z69-14.6-14.6-14.5-14.2-14.1-14.1-13.9-13.9-13.9-13.7-13.5-13.4-13.3-13.2-13.2-13.1-13.1-13.1-12-11.8-11.7-11.7-11.2-11.1-10.9-10.6-10.5-10.4-9.7-9.5-9.3-8.2
2022-01-26 06Z72-14.2-14.1-14-13.8-13.8-13.6-13.4-13.1-13-12.7-12.4-12.4-12.3-12.1-11.9-11.8-11.2-11-10.7-10.7-10.5-10.4-9.9-9.8-9.7-9.6-9.1-8.7-8.3-8.2-8-7.3
2022-01-26 09Z75-8.1-7.6-7.5-7.4-7.4-7.1-7.1-6.8-6.8-6.4-6.3-6.1-6.1-6.1-6-5.9-5.8-5.8-5.2-5.1-5.1-5-4.9-4.8-4.4-4.3-4.2-3.6-3.3-3-2.9-2.3
2022-01-26 12Z78-4.7-4.4-4-3.8-3.8-3.8-3.5-3.4-3.3-3.3-2.9-2.7-2.6-2.6-2.5-2.4-2.4-2.3-2.1-2-1.9-1.9-1.7-1.5-1.4-1.3-1.2-1.1-0.4-0.3-0.2-0.1
2022-01-26 15Z81-6.9-5.7-5.1-5.1-4.8-4.7-4.7-4.3-4.2-4.2-4.2-4-4-3.8-3.8-3.6-3.5-3.4-3.2-3.2-3-3-2.8-2.8-2.6-2.5-2.5-2.1-2-2-1.9-1.4
2022-01-26 18Z84-10.1-9.3-9-8.6-8.2-8-7.9-6.9-6.7-6.6-6.4-6.4-6.3-6.2-6.1-6-5.9-5.9-5.8-5.7-5.6-5.6-5.5-5.5-5.3-5-5-4.9-4.8-4-3.7-3.6
2022-01-26 21Z87-11.3-10.7-9.7-9.5-9.1-8.8-8.3-8.2-7.9-7.8-7.6-7.1-7.1-7.1-7-7-6.9-6.8-6.6-6.5-6.5-6.5-6.4-6.4-6.4-5.8-5.7-5.7-5.4-4.8-4.5-3.7
2022-01-27 00Z90-11.6-11.5-10-9.9-9.6-9.4-9.1-8.8-8.6-8.4-8.2-8-7.9-7.7-7.6-7.5-7.4-7.3-7.3-7.3-7.2-7.2-7.1-7-6.7-6.6-6.6-6.3-5.6-5.5-4.9-3.8
2022-01-27 03Z93-11.8-11-10.8-10.5-10.3-9.8-9.7-9.5-9.5-9.3-9.3-9.3-8.4-8.4-8.2-8-8-7.9-7.8-7.8-7.7-7.7-7.6-7.5-7.1-7-6.8-6.7-6.4-6.3-5.6-4.2
2022-01-27 06Z96-11.6-11.2-11-10.9-10.2-10-9.7-9.5-9.3-9.3-9.2-9-8.9-8.9-8.8-8.5-8.5-8.4-8.3-8.1-8.1-8-7.9-7.6-7.3-7.2-7.2-7.2-6.6-6.3-6.3-3.9
2022-01-27 09Z99-5.8-5.4-5.1-4.7-4.3-4.3-4.2-4.2-4.1-3.7-3.5-3.3-3.2-3.2-3.2-3.1-3.1-3-2.9-2.9-2.8-2.8-2.8-2.6-2.4-2.2-2.1-2-1.6-1.5-1.4-1.4
2022-01-27 12Z102-3.6-2.8-2.5-2.4-2.4-2.3-1.9-1.9-1.7-1.5-1.4-1.2-1.2-1.2-1.1-1.1-1-1-1-1-0.8-0.6-0.6-0.5-0.4-0.4-0.3-0.1000.20.3
2022-01-27 15Z105-5.1-4.4-3.9-3.8-3.8-3.5-3.5-3.3-3.3-3.3-3.3-3.1-3.1-2.9-2.8-2.8-2.5-2.5-2.5-2.5-2.4-2.3-2.3-2.1-2-1.8-1.7-1.6-1.4-1.3-1.1-0.9
2022-01-27 18Z108-7.7-7.1-6.9-6.9-6.8-6.5-6.5-6.4-6.4-6.3-6.2-6.2-5.9-5.9-5.6-5.5-5.5-5.4-5.3-5.2-5-5-4.9-4.3-4.2-3.8-3.7-3.6-3.6-2.9-2.9-2.8
2022-01-27 21Z111-8.8-8.1-7.8-7.5-7.5-7.4-7.3-7-6.9-6.9-6.6-6.6-6.5-6.3-6.1-6-5.9-5.9-5.9-5.8-5.6-5.2-5.1-4.8-4.8-4.7-4.5-4.2-4.2-4.1-4-3.8
2022-01-28 00Z114-9.2-8.2-8.2-8.1-7.9-7.8-7.6-7.5-7.4-7.4-7.3-7.1-7-6.6-6.3-6.3-6.1-6-5.8-5.7-5.7-5.4-5.4-5.3-5.3-5-4.5-4.4-4.2-4.1-4.1-3.9
2022-01-28 03Z117-9.2-8.4-8.2-8.2-8.1-7.7-7.6-7.5-7.4-7.3-7.3-7.2-7.2-6.9-6.4-6.4-6.3-5.9-5.9-5.9-5.9-5.8-5.7-5.3-5.1-5-4.9-4.6-4.4-4.1-3.8-3.7
2022-01-28 06Z120-9.2-8.8-8.1-8.1-8-8-7.9-7.6-7.5-7.3-7.3-7.2-7-6.9-6.9-6.8-6.5-5.9-5.8-5.8-5.5-5.1-5-4.8-4.7-4.7-4.7-4.7-4.4-4.2-4.2-3.6
2022-01-28 09Z123-4.3-3.1-2.4-2.1-2-1.7-1.7-1.5-1.3-1.3-1.2-1.1-1.1-0.6-0.6-0.5-0.4-0.3-0.10.60.70.80.90.91.21.51.61.71.71.91.92
2022-01-28 12Z126-1.9-10.10.60.70.81.21.31.31.61.81.922.12.22.32.52.52.62.82.92.93.33.63.83.8444.14.44.54.8
2022-01-28 15Z129-4.1-2.8-1.6-1.5-1.4-1.3-1.1-1-0.8-0.7-0.7-0.2-0.2-0.10000.10.10.20.30.30.30.50.70.911.21.31.41.51.9
2022-01-28 18Z132-7.3-5.4-4.4-4.4-4-3.8-3.8-3.6-3.5-3.3-3.3-2.9-2.8-2.7-2.7-2.7-2.5-2.4-2.4-2.3-2.2-2.2-2.2-2.2-2.1-2-1.9-1.9-1.6-1.5-1.4-1.2
2022-01-28 21Z135-7.7-5.4-5.2-5.2-5.1-5-4.7-4.6-4.4-3.9-3.7-3.7-3.6-3.6-3.6-3.5-3.4-3.4-3.4-3.4-3.4-3.4-3.2-3.2-3.2-3.2-3.1-3-3-2.9-2.7-2.4
2022-01-29 00Z138-7.9-6.6-5.5-5.1-5-5-4.9-4.9-4.7-4.7-4.7-4.6-4.3-4.3-4.2-4.2-4.2-4.1-4.1-4-3.9-3.9-3.8-3.8-3.7-3.7-3.7-3.5-3.5-3.3-3.2-2.6
2022-01-29 03Z141-6.9-6.9-5.9-5.7-5.6-5.5-5.5-5.4-5.3-5.3-5.3-5.1-5.1-5.1-5-5-4.8-4.7-4.7-4.7-4.6-4.6-4.6-4.6-4.4-4.3-4-4-4-3.9-3.7-3.3
2022-01-29 06Z144-7.5-6.9-6.4-6.3-5.8-5.7-5.6-5.6-5.6-5.5-5.5-5.5-5.5-5.2-5.2-5.2-5.1-5-5-5-5-4.7-4.5-4.5-4.4-4.4-4.2-4.2-4.1-3.5-3.4-2.9
2022-01-29 09Z147-3.3-3-2.7-2.4-2.3-2.2-2-1.8-1.6-1.5-1.5-1.5-1.4-1.4-1.4-1.2-1.1-1.1-1-0.9-0.9-0.8-0.8-0.5-0.5-0.5-0.5-0.4-0.3-0.100.2
2022-01-29 12Z150-2.8-2.6-1.7-1.6-1.2-1.1-1.1-1-1-0.9-0.9-0.8-0.5-0.5-0.4-0.2-0.10.20.20.20.40.40.50.50.91.21.21.21.31.41.71.9
2022-01-29 15Z153-4.8-4-3.7-3.5-3.5-3.4-3.3-2.9-2.8-2.8-2.5-2.4-2.3-2.2-2.1-2.1-2-2-1.9-1.8-1.8-1.7-1.5-1.2-0.7-0.7-0.7-0.6-0.4-0.3-0.10.6
2022-01-29 18Z156-7.7-6.8-6.8-6.6-6.4-6.3-6.1-5.8-5.8-5.3-5.3-5.3-5.1-5.1-5-5-4.8-4.4-4.3-4.1-4.1-3.8-3.6-3.5-3.2-2.9-2.9-2.6-2.3-2-1.8-0.5
2022-01-29 21Z159-9.1-8.3-7.6-6.9-6.9-6.7-6.6-6.5-6.4-6.3-6.1-6.1-6-6-5.9-5.7-5.5-5.3-5.2-4.9-4.9-4.3-4.2-4.1-4.1-4-3.8-3.7-3.3-2.3-2.2-0.7
2022-01-30 00Z162-9.8-9.2-8.2-7.9-7.4-7.2-6.8-6.8-6.7-6.5-6.4-6.3-6.1-6.1-6-6-5.9-5.6-5.6-5.4-5.3-5.3-5.2-5.1-5-4.9-4.4-4.1-3.6-2.7-2.4-1
2022-01-30 03Z165-9.9-9.6-9.4-8.2-8.2-8.2-8-7.2-6.9-6.8-6.8-6.7-6.6-6.6-6.4-6.4-6.2-6.2-6.1-6.1-6-5.9-5.9-5.8-5.4-5.2-4.8-4.6-4.1-3-1.80.1
2022-01-30 06Z168-9.8-9.7-8.9-8.6-8.6-8.6-8.2-8-7.9-7.3-7.3-7.3-7.1-7-6.6-6.6-6.5-6.5-6.4-6.4-6.2-6-5.9-5.6-5.5-5.5-4.8-3.8-3.7-3.2-2.20.5
2022-01-30 09Z171-5.8-5-4.6-4.5-4.3-4.3-4.1-4-4-3.9-3.9-3.4-3.2-3.2-3.1-3.1-3-2.4-2.3-2.2-1.8-1.8-1.3-1-0.7-0.3-0.20.11.51.623.5
2022-01-30 12Z174-3.7-3.3-3.1-2.8-2.6-2.5-2.1-1.8-1.8-1.7-1.6-1.2-1.2-1.2-0.8-0.7-0.5-0.200.31.11.11.51.72.12.32.42.42.845.46.4
2022-01-30 15Z177-5.6-5.2-4.1-3.7-3.6-3.5-3.4-3.3-3.2-3-2.8-2.8-2.5-2.2-2.1-2-1.9-1.7-1.1-0.9-0.8-0.100.50.60.811.51.92.22.32.9
2022-01-30 18Z180-7.7-7.4-6.3-6.3-6.1-5.8-5.7-5.7-5.4-5-4.8-4.7-4.7-4.2-3.9-3.8-3.6-3.5-3.2-2.6-2.5-2-1.9-1.9-1.6-1.3-1-0.6-0.40.10.11.7
2022-01-30 21Z183-8.3-8.2-7.8-7.1-6.9-6.7-6.6-6.3-6.1-5.8-5.2-5.2-5-4.5-3.9-3.6-3.5-3.3-3.1-3-2.8-2.8-2.3-2.2-2.1-2.1-2-1.6-0.6-0.502.3
2022-01-31 00Z186-9.7-9.4-8.4-7.9-7.8-7.5-7.5-6.9-6.1-5.9-5.2-5.1-4.7-4.7-4.3-4.2-3.9-3.9-3.4-3.1-3.1-2.8-2.3-2.2-2.1-2.1-1.9-1.1-1-0.901.9
2022-01-31 03Z189-10.8-10.6-8.9-7.9-7.6-7.4-6.7-6.6-6.6-6.3-5.5-5.4-4.9-4.9-4.6-4.3-4.2-4.1-4-4-3.6-3.1-3.1-2.4-2.4-2.2-1.9-1.3-0.7-0.200.7
2022-01-31 06Z192-10.8-10.6-9.4-8.3-7.2-6.9-6.6-6.5-5.8-5.5-5.5-5-4.6-4.6-4.4-4.3-4-4-3.8-3.3-3.1-3-2.8-2.2-2.2-2.1-1.6-1-0.500.40.4
2022-01-31 12Z198-5.4-2.7-2.2-1.3-1.3-1.2-0.8-0.70.40.50.811.11.11.21.41.71.82.22.62.82.83.13.33.53.84.255.15.16.46.6
2022-01-31 18Z204-8.8-7.5-6.6-5.4-5.1-4.9-4.5-4.4-4.1-4-3.9-3.6-2.7-2.3-2.3-1.7-1.6-1.6-1.3-1.2-1.1-1-1-0.9-0.8-0.6-0.1000.10.41
2022-02-01 00Z210-11.8-7.5-7.3-6.4-6.3-6.2-5.7-5.4-5.3-5.3-5.1-3.9-2.9-2.8-2.7-2.6-2.5-2.4-2.3-2.3-2-1.9-1.1-1.1-1.1-1-1-0.7-0.600.81.6
2022-02-01 06Z216-9.8-8.7-8.4-8.1-7.1-6.7-6.4-5.8-5.2-4.8-4.3-4-4-4-3.4-3.3-2.9-2.8-2.6-2.5-2.4-2.3-1.9-1.9-1.5-1.4-1.1-0.7-0.6-0.411.8
2022-02-01 12Z222-4.3-4.2-3.8-2.7-2.5-2-1.8-1.8-1.6-1.5-1.3-1.1-1-0.6-0.5-0.500.10.30.40.71.21.21.41.42.32.42.83.94.15.16
2022-02-01 18Z228-9.3-8.7-8.5-7.2-6.9-5.4-5.4-5.1-4.9-4.3-4.1-3.9-3.6-3.4-3.3-3.2-3.1-2.8-2.2-2.2-2.1-2-1.8-1.4-1.1-0.8-0.3-0.20.10.71.31.3
2022-02-02 00Z234-11.8-9.5-9-8.2-7.5-6.9-6.9-6.8-6.7-5.9-5.4-5.3-5.2-5-4.8-4.8-4.7-4.5-4.3-4-3.6-3.4-3.3-3.1-3-2.6-1.700.10.80.81.3
2022-02-02 06Z240-12.1-11.2-9.1-9-8.5-7.6-7.4-7.3-7.1-7-6.6-6.4-6.3-6.3-6.2-6.2-6-5.9-5.8-5.5-5.4-5-3.6-3.4-2.6-1.9-0.7-0.3-0.20.20.41.1
2022-02-02 12Z246-7.7-4.7-4.5-4.3-4.1-3.9-3.5-3.5-3.3-3.3-3.2-2.6-2.6-2-1.5-1.3-1-0.8-0.4-0.100.512.93.23.43.83.944.45.17.3
2022-02-02 18Z252-11.1-9.5-8.1-7.5-7.4-6.8-6.3-6.3-6.3-6.2-6.2-5.8-5.3-5.2-5.1-5.1-4.4-3.9-3-2.8-2-1.8-1.4-0.7-0.5-0.4000.20.60.71.3
2022-02-03 00Z258-11.1-10-9-8.7-8-7.8-7.7-7.4-7.3-7.1-7.1-7.1-7-6.1-5.8-5.5-5.3-5.3-3.4-2.5-2.2-1.8-1.7-1.6-1.3-1-0.9-0.8-0.8-0.2-0.20
2022-02-03 06Z264-11.4-11.3-9.8-9.3-9-8.6-8.4-8.4-8.3-8.3-8.3-8.3-7.1-6.9-6.9-5.9-5.5-3.8-3.3-2.7-2.5-2-1.7-0.9-0.8-0.7-0.4-0.20.10.30.50.6
2022-02-03 12Z270-5.6-4.3-3.8-3.7-3.6-3.5-2.7-2.6-2.6-1.7-1.6-1.5-1.2-1.2-1.1-1-0.7-0.30.20.611.32.43.23.34.75.25.86.66.76.87.6
2022-02-03 18Z276-10.9-10.5-9.4-8.5-8.1-6.9-6.9-6.7-6-5.8-5.7-5.1-4.6-4.1-4-3.6-3.3-3-2-0.9-0.5-0.2-0.2-0.1-0.100.10.80.811.11.2
2022-02-04 00Z282-14.5-14.1-10.4-10.4-10.2-10.1-9.8-8.6-8.1-7.2-6.9-6.4-5.6-5-4.4-3.8-2.9-2.1-1.8-1.6-1.6-1.4-1.2-0.8-0.7-0.300.10.10.10.21
2022-02-04 06Z288-14.9-14.2-11.4-11.2-10-10-9.6-9.2-8.9-7.9-7.7-7.1-6.2-5.2-4.9-4.9-3-2.6-1.6-1.5-1.5-1.4-1.3-1.3-0.6-0.3000.30.30.60.7
2022-02-04 12Z294-4.9-4.6-3.6-3.5-3.5-2.5-2.3-2.1-2.1-1.3-1-1-1-0.4-0.3-0.31.11.31.41.72.53.53.73.94.14.35.46.87.78.18.18.4
2022-02-04 18Z300-9.6-8.9-8.1-7.5-6.9-6.8-6.7-5.8-5.4-5.3-4.3-4.3-3.9-3.9-3.6-3.4-2.9-1.4-1.3-1.3-1-1-0.40.30.70.911.31.71.92.13.5
2022-02-05 00Z306-12.6-10.6-10.2-9.4-8.7-7.6-7.2-6.4-6.4-6.1-6-5.6-5-4.3-4-3.7-3.3-2.9-1.8-1.8-1.7-1.7-1.2-1.1-1-0.40.20.40.50.71.52.8
2022-02-05 06Z312-12.5-11-10.5-10.2-9.6-8.3-7.9-7.5-6.8-6.3-6-5.3-5.3-4.3-4.3-4.2-3.5-3-3-2.8-2.8-2.7-1.5-1-0.9-0.400.30.40.41.12.5
2022-02-05 12Z318-3.5-2.9-2.3-2.3-2-1.9-1.8-1.3-0.6-0.2-0.1000.40.80.81.21.31.42.22.42.62.73.85.766.16.46.97.77.99.3
2022-02-05 18Z324-9-6.9-6.7-6.6-6.4-5.9-5.8-5.7-5.3-4.1-3.6-3.6-3.2-3-3-2.9-2.8-2.2-2.1-2-1.2-0.7-0.70.10.71.51.51.51.51.72.14.2
2022-02-06 00Z330-9.8-9.7-8.2-8.2-8-7.9-7.4-7.3-7.1-7-6.7-6.6-4.7-4.6-4.1-4.1-3.6-3.6-3.3-2.5-2-1.6-1.1-0.6-0.5-0.40.20.811.11.92.6
2022-02-06 06Z336-10.7-9.7-9.4-9.3-8.5-8.5-8.5-8.1-7.4-7.1-6.9-5.6-5.4-5-4.4-4.3-4.2-4.2-3.2-2.8-2.5-1.9-1.9-0.9-0.7-0.7-0.5-0.10.10.70.91.4
2022-02-06 12Z342-6.1-3.4-2.9-1.9-1.1-0.3-0.2-0.100.30.30.40.40.60.90.91.11.31.41.922.33.33.74.955.267.27.68.68.6
2022-02-06 18Z348-9.1-8.6-6.2-5.2-4.3-3.8-3.6-3.5-3.4-3.4-3.3-3.1-3.1-2.9-2.8-2.7-2.2-2.2-1.6-1.3-1.1-0.7-0.3-0.2-0.10.10.20.91.33.64.15.9
2022-02-07 00Z354-10.9-10.4-7.1-6.6-6.6-6.5-6.1-4.6-4.6-4.3-4.2-4.2-4.2-4.1-3.5-3.4-3.1-2.9-2.8-2.5-2-1.6-1.2-1.1-0.7-0.5-0.100.622.84.2
2022-02-07 06Z360-12.1-11.8-8-7.7-7.4-7.2-6.7-6.1-5.6-5.1-4.9-4.8-4.2-4.2-4.1-3.9-3.1-2.8-2.6-2.5-2-1.8-1.5-1.4-0.9-0.5-0.2-0.101.63.33.3
2022-02-07 12Z366-6.2-3.8-3.5-2.7-0.9-0.6-0.6-0.4-0.30.10.10.61.21.81.91.92.32.32.73.53.63.64.14.34.65.15.75.75.96.878.8
2022-02-07 18Z372-9.6-9.3-9-8.7-6.8-4.4-4.3-4.1-4-4-2.8-2.4-2-2-1.9-1.9-1.8-1.6-1.4-1.4-1.2-0.3-0.3-0.10.30.7122.72.734.3
2022-02-08 00Z378-12.1-11.3-10.4-8.7-7.7-5.6-5.2-5.1-4.9-4.3-4.3-3.5-3.4-3-2.8-2.8-2.5-2.4-2.4-2.2-1.5-1.4-1.2-0.9-0.40.10.21.11.11.62.23
2022-02-08 06Z384-13.2-11.6-11.5-9.9-6.7-6.4-5.7-5.6-5.3-4.9-4.4-4.2-3.9-3.8-3.8-3.5-2.7-2.5-2.3-2-1.4-1.4-1-0.9-0.8-0.7-0.100.21.11.23.3

Retour à la carte

Meteociel™ | © 2004 - 2022 | Forums Météo | Prévi Paris | Paramètres des cookies | Cookies | Média - Meteociel | Mentions légales | Contact